Time;durP1;ratioP1;P1;durP2;ratioP2;P2;SDS_P1;SDS_P2;PMS_P1;PMS_P2;Temp;Humidity;BMP_temperature;BMP_pressure;BME280_temperature;BME280_humidity;BME280_pressure;Samples;Min_cycle;Max_cycle;Signal;HPM_P1;HPM_P2
2021/04/12 00:02:08;;;;;;;10.48;4.28;;;1.70;99.90;;;;;;4974398;28;20501;-78
2021/04/12 00:04:48;;;;;;;8.10;4.20;;;1.70;99.90;;;;;;4974038;28;20162;-77
2021/04/12 00:07:22;;;;;;;5.25;3.70;;;1.70;99.90;;;;;;4972986;28;20629;-78
2021/04/12 00:09:57;;;;;;;8.10;3.97;;;1.60;99.90;;;;;;4974357;28;20186;-77
2021/04/12 00:12:33;;;;;;;7.22;4.00;;;1.60;99.90;;;;;;4973092;28;20183;-77
2021/04/12 00:15:08;;;;;;;5.47;3.15;;;1.50;99.90;;;;;;4974017;28;20175;-78
2021/04/12 00:17:39;;;;;;;5.63;3.90;;;1.50;99.90;;;;;;4974009;28;20208;-77
2021/04/12 00:20:09;;;;;;;8.32;4.28;;;1.50;99.90;;;;;;4974034;28;20274;-78
2021/04/12 00:23:01;;;;;;;7.55;3.60;;;1.50;99.90;;;;;;4974217;28;20572;-78
2021/04/12 00:25:51;;;;;;;8.85;3.88;;;1.50;99.90;;;;;;4972656;28;20577;-78
2021/04/12 00:28:20;;;;;;;6.15;3.85;;;1.40;99.90;;;;;;4974409;28;20172;-77
2021/04/12 00:31:17;;;;;;;11.10;4.35;;;1.40;99.90;;;;;;4974096;28;20182;-78
2021/04/12 00:33:53;;;;;;;7.50;5.13;;;1.50;99.90;;;;;;4974161;28;20288;-78
2021/04/12 00:36:33;;;;;;;4.30;3.90;;;1.40;99.90;;;;;;4973891;28;20213;-77
2021/04/12 00:39:10;;;;;;;11.75;3.92;;;1.40;99.90;;;;;;4973932;28;20183;-80
2021/04/12 00:41:54;;;;;;;5.95;3.72;;;1.30;99.90;;;;;;4972944;28;20555;-78
2021/04/12 00:44:38;;;;;;;7.03;4.55;;;1.30;99.90;;;;;;4974045;28;20185;-78
2021/04/12 00:47:17;;;;;;;8.65;5.05;;;1.40;99.90;;;;;;4973804;28;20565;-79
2021/04/12 00:50:05;;;;;;;6.45;5.07;;;1.30;99.90;;;;;;4974331;28;20554;-79
2021/04/12 00:52:47;;;;;;;11.73;5.50;;;1.40;99.90;;;;;;4974207;28;20159;-79
2021/04/12 00:55:27;;;;;;;8.98;4.10;;;1.40;99.90;;;;;;4972972;28;20701;-79
2021/04/12 00:58:11;;;;;;;7.15;4.38;;;1.30;99.90;;;;;;4974958;28;20172;-79
2021/04/12 01:00:47;;;;;;;11.18;5.40;;;1.30;99.90;;;;;;4988939;28;20249;-78
2021/04/12 01:03:54;;;;;;;6.80;3.92;;;1.30;99.90;;;;;;4972525;28;20174;-78
2021/04/12 01:06:49;;;;;;;7.35;4.72;;;1.30;99.90;;;;;;4967483;28;20234;-79
2021/04/12 01:09:40;;;;;;;7.80;4.57;;;1.30;99.90;;;;;;4973577;28;20177;-79
2021/04/12 01:12:44;;;;;;;4.72;4.28;;;1.20;99.90;;;;;;4973937;28;20727;-80
2021/04/12 01:15:34;;;;;;;5.40;4.65;;;1.30;99.90;;;;;;4973792;28;20168;-78
2021/04/12 01:18:48;;;;;;;7.93;4.82;;;1.20;99.90;;;;;;4976938;28;20204;-78
2021/04/12 01:21:44;;;;;;;4.75;4.25;;;1.30;99.90;;;;;;4972792;28;20233;-78
2021/04/12 01:24:43;;;;;;;5.22;4.05;;;1.20;99.90;;;;;;4992672;28;20664;-78
2021/04/12 01:27:49;;;;;;;7.63;4.38;;;1.20;99.90;;;;;;4977438;28;20200;-79
2021/04/12 01:30:45;;;;;;;7.65;3.88;;;1.10;99.90;;;;;;4977335;28;20184;-78
2021/04/12 01:33:38;;;;;;;5.97;4.30;;;1.10;99.90;;;;;;4977338;28;20208;-79
2021/04/12 01:36:21;;;;;;;6.90;4.72;;;1.00;99.90;;;;;;4975513;28;20203;-78
2021/04/12 01:39:02;;;;;;;7.68;5.38;;;1.00;99.90;;;;;;4977023;28;20157;-79
2021/04/12 01:42:23;;;;;;;9.95;5.55;;;1.00;99.90;;;;;;4976874;28;20690;-78
2021/04/12 01:45:19;;;;;;;9.82;5.38;;;1.00;99.90;;;;;;4961769;28;20192;-78
2021/04/12 01:48:22;;;;;;;9.40;5.15;;;0.90;99.90;;;;;;4977132;28;20170;-78
2021/04/12 01:51:12;;;;;;;7.22;5.25;;;0.90;99.90;;;;;;4977138;28;20584;-78
2021/04/12 01:53:58;;;;;;;10.80;5.60;;;0.90;99.90;;;;;;4975823;28;20595;-79
2021/04/12 01:57:01;;;;;;;6.97;4.72;;;0.90;99.90;;;;;;4976851;28;20257;-79
2021/04/12 01:59:54;;;;;;;10.02;5.47;;;0.90;99.90;;;;;;4977116;28;20585;-79
2021/04/12 02:02:46;;;;;;;7.75;5.70;;;0.90;99.90;;;;;;4977225;28;20174;-79
2021/04/12 02:05:35;;;;;;;8.02;6.38;;;0.90;99.90;;;;;;4977420;28;20186;-79
2021/04/12 02:08:25;;;;;;;8.15;6.30;;;0.90;99.90;;;;;;4976998;28;20157;-79
2021/04/12 02:10:59;;;;;;;11.73;5.43;;;0.80;99.90;;;;;;4977550;28;20225;-79
2021/04/12 02:13:52;;;;;;;10.07;5.40;;;0.90;99.90;;;;;;4977194;28;20533;-80
2021/04/12 02:16:32;;;;;;;10.85;6.43;;;0.80;99.90;;;;;;4976443;28;20201;-79
2021/04/12 02:19:22;;;;;;;9.95;5.88;;;0.80;99.90;;;;;;4991863;28;20193;-79
2021/04/12 02:22:11;;;;;;;11.35;7.20;;;0.80;99.90;;;;;;4976904;28;20590;-79
2021/04/12 02:24:45;;;;;;;15.13;6.75;;;0.80;99.90;;;;;;4976925;28;20661;-80
2021/04/12 02:27:19;;;;;;;14.05;7.53;;;0.80;99.90;;;;;;4977069;28;20577;-79
2021/04/12 02:30:16;;;;;;;7.53;6.10;;;0.80;99.90;;;;;;4990783;28;20170;-80
2021/04/12 02:33:15;;;;;;;15.45;6.53;;;0.80;99.90;;;;;;4966722;28;20195;-79
2021/04/12 02:36:16;;;;;;;11.55;6.10;;;0.80;99.90;;;;;;4976694;28;20253;-79
2021/04/12 02:38:46;;;;;;;14.77;6.75;;;0.70;99.90;;;;;;4965395;28;20194;-80
2021/04/12 02:41:30;;;;;;;8.52;6.55;;;0.70;99.90;;;;;;4976819;28;20221;-80
2021/04/12 02:44:33;;;;;;;10.60;7.05;;;0.70;99.90;;;;;;4976600;28;20254;-80
2021/04/12 02:47:37;;;;;;;10.20;6.68;;;0.60;99.90;;;;;;4976708;28;20214;-79
2021/04/12 02:50:21;;;;;;;12.38;6.40;;;0.60;99.90;;;;;;4976250;28;20188;-79
2021/04/12 02:53:15;;;;;;;9.13;6.30;;;0.60;99.90;;;;;;4976623;28;20199;-79
2021/04/12 02:56:17;;;;;;;10.85;7.90;;;0.60;99.90;;;;;;4975447;28;20678;-80
2021/04/12 02:58:51;;;;;;;8.95;6.68;;;0.70;99.90;;;;;;4976811;28;20237;-79
2021/04/12 03:01:46;;;;;;;15.15;7.38;;;0.60;99.90;;;;;;4976668;28;20208;-79
2021/04/12 03:04:30;;;;;;;9.15;6.85;;;0.60;99.90;;;;;;4975699;28;20196;-79
2021/04/12 03:07:14;;;;;;;10.10;7.63;;;0.60;99.90;;;;;;4975290;28;20295;-80
2021/04/12 03:09:40;;;;;;;11.82;6.68;;;0.50;99.90;;;;;;4975698;28;20166;-79
2021/04/12 03:12:23;;;;;;;9.60;7.20;;;0.50;99.90;;;;;;4975483;28;20181;-80
2021/04/12 03:15:26;;;;;;;10.40;6.43;;;0.60;99.90;;;;;;4990990;28;20185;-79
2021/04/12 03:18:39;;;;;;;13.25;7.57;;;0.60;99.90;;;;;;4975349;28;20171;-80
2021/04/12 03:21:49;;;;;;;11.50;6.90;;;0.60;99.90;;;;;;4956202;28;20220;-80
2021/04/12 03:24:27;;;;;;;10.07;6.05;;;0.60;99.90;;;;;;4972221;28;20210;-80
2021/04/12 03:27:22;;;;;;;9.13;7.00;;;0.60;99.90;;;;;;4974045;28;20693;-80
2021/04/12 03:30:02;;;;;;;11.85;5.80;;;0.60;99.90;;;;;;4975855;28;20535;-80
2021/04/12 03:32:57;;;;;;;7.82;6.78;;;0.60;99.90;;;;;;4974068;28;20244;-80
2021/04/12 03:35:41;;;;;;;12.48;6.75;;;0.50;99.90;;;;;;4966520;28;20226;-81
2021/04/12 03:38:48;;;;;;;9.43;7.57;;;0.50;99.90;;;;;;4974848;28;20493;-81
2021/04/12 03:41:14;;;;;;;11.00;6.18;;;0.50;99.90;;;;;;4974397;28;20231;-80
2021/04/12 03:43:58;;;;;;;9.77;6.33;;;0.50;99.90;;;;;;4975285;28;20181;-80
2021/04/12 03:46:53;;;;;;;7.00;5.53;;;0.70;99.90;;;;;;4975987;28;20272;-81
2021/04/12 03:49:24;;;;;;;8.95;6.30;;;0.70;99.90;;;;;;4976279;28;20252;-80
2021/04/12 03:51:56;;;;;;;8.48;5.63;;;0.60;99.90;;;;;;4993139;28;20262;-80
2021/04/12 03:54:44;;;;;;;11.25;5.55;;;0.60;99.90;;;;;;4976819;28;20200;-81
2021/04/12 03:57:25;;;;;;;6.65;5.40;;;0.50;99.90;;;;;;4991240;28;20223;-81
2021/04/12 04:00:28;;;;;;;9.73;6.40;;;0.40;99.90;;;;;;4991259;28;20222;-80
2021/04/12 04:03:12;;;;;;;7.78;5.93;;;0.40;99.90;;;;;;4976500;28;20172;-80
2021/04/12 04:05:52;;;;;;;11.95;5.88;;;0.30;99.90;;;;;;4975465;28;20211;-80
2021/04/12 04:08:38;;;;;;;7.65;5.60;;;0.30;99.90;;;;;;4975514;28;20185;-80
2021/04/12 04:11:09;;;;;;;8.07;5.75;;;0.20;99.90;;;;;;4975997;28;20168;-80
2021/04/12 04:13:45;;;;;;;17.00;6.32;;;0.30;99.90;;;;;;4975190;28;20179;-80
2021/04/12 04:16:39;;;;;;;8.75;5.72;;;0.20;99.90;;;;;;4974067;28;20203;-80
2021/04/12 04:19:43;;;;;;;14.90;6.50;;;0.20;99.90;;;;;;4974415;28;20287;-80
2021/04/12 04:22:27;;;;;;;12.10;5.85;;;0.30;99.90;;;;;;4974766;28;20518;-80
2021/04/12 04:25:27;;;;;;;11.52;6.68;;;0.20;99.90;;;;;;4976160;28;20168;-80
2021/04/12 04:28:05;;;;;;;11.95;7.10;;;0.20;99.90;;;;;;4977391;28;20190;-80
2021/04/12 04:30:52;;;;;;;11.27;7.78;;;0.20;99.90;;;;;;4975990;28;20512;-80
2021/04/12 04:33:54;;;;;;;12.35;7.35;;;0.20;99.90;;;;;;4990202;28;20266;-80
2021/04/12 04:36:45;;;;;;;10.93;7.60;;;0.10;99.90;;;;;;4972098;28;20212;-80
2021/04/12 04:39:49;;;;;;;10.95;8.38;;;0.20;99.90;;;;;;4975307;28;20192;-80
2021/04/12 04:42:33;;;;;;;10.23;7.22;;;0.10;99.90;;;;;;4953669;29;20187;-79
2021/04/12 04:45:31;;;;;;;12.45;7.68;;;0.10;99.90;;;;;;4973560;28;20645;-79
2021/04/12 04:48:34;;;;;;;13.50;7.78;;;0.10;99.90;;;;;;4973624;28;20180;-79
2021/04/12 04:51:11;;;;;;;15.18;9.25;;;0.20;99.90;;;;;;4974310;28;20719;-79
2021/04/12 04:53:54;;;;;;;18.10;9.10;;;0.30;99.90;;;;;;4993090;28;20191;-81
2021/04/12 04:56:45;;;;;;;15.50;9.15;;;0.20;99.90;;;;;;4977840;28;20311;-81
2021/04/12 04:59:43;;;;;;;13.38;9.77;;;0.20;99.90;;;;;;4978355;28;20630;-79
2021/04/12 05:02:20;;;;;;;17.02;10.30;;;0.30;99.90;;;;;;4993512;28;20676;-81
2021/04/12 05:05:18;;;;;;;15.80;11.57;;;0.30;99.90;;;;;;4977579;28;20591;-81
2021/04/12 05:08:07;;;;;;;15.18;10.65;;;0.30;99.90;;;;;;4992667;28;20698;-82
2021/04/12 05:10:50;;;;;;;11.27;10.07;;;0.20;99.90;;;;;;4977832;28;20528;-81
2021/04/12 05:13:43;;;;;;;16.45;10.40;;;0.20;99.90;;;;;;4978232;28;20259;-82
2021/04/12 05:16:20;;;;;;;20.25;10.70;;;0.20;99.90;;;;;;4978523;28;20192;-82
2021/04/12 05:19:27;;;;;;;14.68;9.35;;;0.10;99.90;;;;;;4979050;28;20534;-81
2021/04/12 05:22:16;;;;;;;12.38;9.45;;;0.00;99.90;;;;;;4968614;28;20207;-82
2021/04/12 05:25:23;;;;;;;13.68;10.45;;;0.10;99.90;;;;;;4978094;28;20184;-81
2021/04/12 05:28:16;;;;;;;12.90;10.15;;;0.40;99.90;;;;;;4977823;28;20172;-82
2021/04/12 05:31:19;;;;;;;17.30;11.07;;;0.40;99.90;;;;;;4993970;28;20176;-82
2021/04/12 05:34:26;;;;;;;18.73;10.68;;;0.40;99.90;;;;;;4979931;28;20181;-79
2021/04/12 05:41:22;;;;;;;;;;;;;;;;;;;;;
2021/04/12 06:07:40;;;;;;;16.92;11.45;;;0.70;99.90;;;;;;5012326;23;20227;-81
2021/04/12 06:10:51;;;;;;;16.13;11.48;;;0.70;99.90;;;;;;5015460;28;20258;-82
2021/04/12 06:24:12;;;;;;;25.60;15.68;;;1.30;99.90;;;;;;5014600;28;20232;-82
2021/04/12 06:27:02;;;;;;;23.58;16.17;;;1.50;99.90;;;;;;5013801;28;20194;-82
2021/04/12 06:29:49;;;;;;;26.10;15.23;;;1.60;99.90;;;;;;5015179;28;20170;-81
2021/04/12 06:32:39;;;;;;;22.17;15.80;;;1.70;99.90;;;;;;5015144;28;20172;-83
2021/04/12 06:35:19;;;;;;;22.52;14.18;;;1.90;99.90;;;;;;5014789;28;20273;-82
2021/04/12 06:37:54;;;;;;;20.45;15.48;;;2.20;99.90;;;;;;5014997;28;20754;-80
2021/04/12 06:40:32;;;;;;;22.75;16.27;;;2.30;99.90;;;;;;5013828;28;20231;-80
2021/04/12 06:43:28;;;;;;;27.40;16.95;;;2.50;99.90;;;;;;5015025;28;20193;-81
2021/04/12 06:46:03;;;;;;;24.60;16.15;;;2.40;99.90;;;;;;5013664;28;20246;-82
2021/04/12 06:49:06;;;;;;;19.70;15.35;;;2.50;99.90;;;;;;5014883;28;20181;-82
2021/04/12 06:51:52;;;;;;;20.25;16.13;;;2.60;99.90;;;;;;5013363;28;20275;-81
2021/04/12 06:54:56;;;;;;;22.73;18.17;;;2.60;99.90;;;;;;5013429;28;20518;-80
2021/04/12 06:57:25;;;;;;;20.88;15.88;;;2.80;99.90;;;;;;5013235;28;20208;-80
2021/04/12 07:00:30;;;;;;;23.25;15.52;;;2.80;99.90;;;;;;5014299;28;20554;-81
2021/04/12 07:03:05;;;;;;;17.85;13.80;;;2.70;99.90;;;;;;5014716;28;20188;-80
2021/04/12 07:05:49;;;;;;;22.73;15.90;;;2.60;99.90;;;;;;5014004;28;20242;-81
2021/04/12 07:08:36;;;;;;;23.60;15.68;;;2.70;99.90;;;;;;5014397;28;20575;-80
2021/04/12 07:11:35;;;;;;;20.42;15.65;;;2.80;99.90;;;;;;5014477;28;20537;-79
2021/04/12 07:14:30;;;;;;;20.20;16.45;;;2.90;99.90;;;;;;5013827;28;20161;-81
2021/04/12 07:17:00;;;;;;;19.80;14.93;;;3.00;99.90;;;;;;5014075;28;20195;-80
2021/04/12 07:19:25;;;;;;;18.83;13.90;;;3.10;99.90;;;;;;5012946;28;20658;-81
2021/04/12 07:22:13;;;;;;;20.90;15.30;;;3.20;99.90;;;;;;5014019;28;20206;-80
2021/04/12 07:25:09;;;;;;;16.33;14.60;;;3.40;99.90;;;;;;5013111;28;20645;-81
2021/04/12 07:28:00;;;;;;;15.32;13.45;;;3.70;99.90;;;;;;5014044;28;20173;-81
2021/04/12 07:30:53;;;;;;;20.25;13.05;;;3.80;99.90;;;;;;5013965;28;20175;-80
2021/04/12 07:33:38;;;;;;;14.07;10.10;;;3.70;99.90;;;;;;5012687;28;20212;-81
2021/04/12 07:36:53;;;;;;;13.75;11.93;;;3.50;99.90;;;;;;5013497;28;20279;-80
2021/04/12 07:40:16;;;;;;;15.68;13.27;;;3.40;99.90;;;;;;5013885;28;20177;-80
2021/04/12 07:43:08;;;;;;;13.18;11.77;;;3.50;99.90;;;;;;5011897;28;20185;-81
2021/04/12 07:46:07;;;;;;;18.67;13.82;;;3.40;99.90;;;;;;4994944;28;20222;-81
2021/04/12 07:49:07;;;;;;;15.23;13.55;;;3.30;99.90;;;;;;5012438;28;20170;-80
2021/04/12 07:52:14;;;;;;;20.48;14.35;;;3.40;99.90;;;;;;5013786;28;20185;-81
2021/04/12 07:54:54;;;;;;;15.88;14.18;;;3.30;99.90;;;;;;4994916;28;20181;-81
2021/04/12 07:57:57;;;;;;;18.13;13.45;;;3.10;99.90;;;;;;5011438;28;20289;-83
2021/04/12 08:00:50;;;;;;;14.18;12.55;;;3.00;99.90;;;;;;5008440;28;20202;-82
2021/04/12 08:03:28;;;;;;;13.27;10.50;;;3.10;99.90;;;;;;5013919;28;20185;-83
2021/04/12 08:06:18;;;;;;;12.45;11.20;;;3.00;99.90;;;;;;5013045;28;20212;-82
2021/04/12 08:09:10;;;;;;;13.63;9.93;;;3.00;99.90;;;;;;5013477;28;20200;-82
2021/04/12 08:12:20;;;;;;;11.10;8.75;;;3.00;99.90;;;;;;5013563;28;20182;-82
2021/04/12 08:15:13;;;;;;;9.13;7.40;;;2.90;99.90;;;;;;5004554;28;20249;-81
2021/04/12 08:18:12;;;;;;;8.45;7.28;;;3.00;99.90;;;;;;5003849;28;20282;-81
2021/04/12 08:21:05;;;;;;;10.20;8.75;;;3.10;99.90;;;;;;5008878;28;20286;-82
2021/04/12 08:23:52;;;;;;;13.55;11.05;;;3.30;99.90;;;;;;5013247;28;20258;-82
2021/04/12 08:26:39;;;;;;;14.77;12.75;;;3.50;99.90;;;;;;5013060;28;20266;-81
2021/04/12 08:29:42;;;;;;;14.23;11.05;;;3.90;99.90;;;;;;5017601;28;20650;-81
2021/04/12 08:32:26;;;;;;;15.40;11.65;;;3.90;99.90;;;;;;5017230;28;20176;-82
2021/04/12 08:35:24;;;;;;;13.93;11.15;;;4.10;99.90;;;;;;5017067;28;20185;-82
2021/04/12 08:38:27;;;;;;;15.77;13.63;;;4.30;99.90;;;;;;5017187;28;20178;-80
2021/04/12 08:41:05;;;;;;;18.60;14.00;;;4.40;99.90;;;;;;5018269;28;20753;-81
2021/04/12 08:43:30;;;;;;;18.58;14.00;;;4.40;99.90;;;;;;5017171;28;20181;-81
2021/04/12 08:46:15;;;;;;;16.57;14.13;;;4.50;99.90;;;;;;5016755;28;20195;-80
2021/04/12 08:48:46;;;;;;;20.13;14.25;;;4.60;99.90;;;;;;5016857;28;20170;-81
2021/04/12 08:51:52;;;;;;;17.40;13.82;;;4.60;99.90;;;;;;5015815;28;20184;-82
2021/04/12 08:54:49;;;;;;;15.38;12.05;;;4.70;99.90;;;;;;5016944;28;20162;-82
2021/04/12 08:57:30;;;;;;;14.55;12.23;;;4.90;99.90;;;;;;5016294;28;20214;-82
2021/04/12 08:59:58;;;;;;;15.00;12.45;;;4.90;99.90;;;;;;5016780;28;20191;-80
2021/04/12 09:02:52;;;;;;;12.55;11.25;;;5.00;99.90;;;;;;5016663;28;20305;-82
2021/04/12 09:06:03;;;;;;;15.50;12.18;;;4.80;99.90;;;;;;5016319;28;20183;-81
2021/04/12 09:08:40;;;;;;;16.73;13.15;;;4.70;99.90;;;;;;5016253;28;20230;-81
2021/04/12 09:11:11;;;;;;;18.13;13.13;;;4.80;99.90;;;;;;5016468;28;20172;-82
2021/04/12 09:13:44;;;;;;;14.95;12.05;;;4.70;99.90;;;;;;5016436;28;20190;-80
2021/04/12 09:16:27;;;;;;;18.67;14.25;;;4.80;99.90;;;;;;5014984;28;20245;-82
2021/04/12 09:19:33;;;;;;;11.10;9.07;;;5.20;99.90;;;;;;5015187;28;20403;-81
2021/04/12 09:22:21;;;;;;;13.63;10.63;;;5.30;99.90;;;;;;5015217;28;20197;-83
2021/04/12 09:27:45;;;;;;;11.23;9.48;;;5.60;99.90;;;;;;5032195;23;20231;-82
2021/04/12 09:30:32;;;;;;;9.98;8.98;;;5.80;99.90;;;;;;4995424;28;20175;-83
2021/04/12 09:33:59;;;;;;;10.77;9.68;;;5.70;99.90;;;;;;4996581;28;20183;-82
2021/04/12 09:36:49;;;;;;;14.07;9.35;;;5.70;99.90;;;;;;4994814;28;20198;-81
2021/04/12 09:39:54;;;;;;;10.25;9.02;;;5.60;99.90;;;;;;4994588;28;20179;-82
2021/04/12 09:43:12;;;;;;;10.45;8.05;;;5.50;99.90;;;;;;4995091;28;20192;-83
2021/04/12 09:46:31;;;;;;;9.27;8.38;;;5.40;99.90;;;;;;4995733;28;20232;-82
2021/04/12 09:52:41;;;;;;;8.75;7.10;;;5.90;99.90;;;;;;4989628;28;20195;-82
2021/04/12 09:56:10;;;;;;;11.23;5.75;;;6.20;99.90;;;;;;4994384;28;20221;-81
2021/04/12 09:59:14;;;;;;;9.60;5.63;;;6.50;99.90;;;;;;4995161;28;20185;-82
2021/04/12 10:02:33;;;;;;;;;;;;;;;;;;;;;
2021/04/12 10:08:55;;;;;;;6.40;5.05;;;7.00;99.90;;;;;;4996198;28;20243;-83
2021/04/12 10:12:00;;;;;;;5.65;5.15;;;6.60;99.90;;;;;;4995669;28;20180;-84
2021/04/12 10:14:43;;;;;;;7.65;4.55;;;7.00;99.90;;;;;;4995467;28;20176;-82
2021/04/12 10:17:21;;;;;;;6.05;5.15;;;6.80;99.90;;;;;;4994796;28;20628;-83
2021/04/12 10:19:51;;;;;;;6.83;4.80;;;7.70;99.90;;;;;;4996247;28;20528;-81
2021/04/12 10:22:43;;;;;;;4.37;3.87;;;7.60;99.90;;;;;;4995576;28;20419;-81
2021/04/12 10:25:18;;;;;;;4.53;4.13;;;7.50;99.90;;;;;;4992546;28;20845;-82
2021/04/12 10:27:48;;;;;;;4.70;3.73;;;7.80;99.90;;;;;;4995539;28;20457;-80
2021/04/12 10:30:39;;;;;;;5.32;4.88;;;7.70;99.90;;;;;;4995633;28;20470;-83
2021/04/12 10:33:35;;;;;;;6.10;4.83;;;7.50;99.90;;;;;;4995357;28;20176;-87
2021/04/12 10:36:07;;;;;;;9.83;4.57;;;8.20;99.90;;;;;;4994094;28;20438;-86
2021/04/12 10:38:43;;;;;;;8.83;3.63;;;8.40;99.90;;;;;;4995454;28;20500;-82
2021/04/12 10:41:34;;;;;;;5.80;3.85;;;7.50;99.90;;;;;;4994270;28;20454;-86
2021/04/12 10:44:21;;;;;;;3.80;2.63;;;7.60;99.90;;;;;;4995797;28;20187;-85
2021/04/12 10:46:52;;;;;;;7.80;3.75;;;7.90;99.90;;;;;;4994583;28;20203;-80
2021/04/12 10:49:24;;;;;;;7.20;2.92;;;7.70;99.90;;;;;;4992778;28;20597;-82
2021/04/12 10:52:11;;;;;;;5.63;3.00;;;7.80;99.90;;;;;;4995082;28;20663;-81
2021/04/12 10:54:59;;;;;;;3.88;2.35;;;8.30;99.90;;;;;;4995562;28;20624;-84
2021/04/12 10:57:52;;;;;;;2.47;2.28;;;8.70;99.90;;;;;;4995027;28;20286;-88
2021/04/12 11:00:40;;;;;;;4.10;2.90;;;8.30;99.90;;;;;;4994211;28;20214;-82
2021/04/12 11:03:14;;;;;;;5.18;2.90;;;8.70;99.90;;;;;;4996074;28;20159;-81
2021/04/12 11:05:57;;;;;;;3.58;1.80;;;8.70;99.90;;;;;;4994636;28;20214;-84
2021/04/12 11:08:46;;;;;;;3.97;2.30;;;8.20;99.90;;;;;;4994901;28;20172;-83
2021/04/12 11:11:30;;;;;;;5.72;2.40;;;8.00;99.90;;;;;;4993716;28;20203;-82
2021/04/12 11:13:59;;;;;;;2.65;2.20;;;7.20;99.90;;;;;;4994893;28;20226;-81
2021/04/12 11:16:24;;;;;;;2.30;2.10;;;7.50;99.90;;;;;;4994685;28;20238;-79
2021/04/12 11:18:52;;;;;;;3.50;2.33;;;7.40;99.90;;;;;;4993428;28;20172;-83
2021/04/12 11:21:32;;;;;;;3.20;2.40;;;7.30;99.90;;;;;;4994573;28;20207;-81
2021/04/12 11:24:02;;;;;;;5.22;2.50;;;7.10;99.90;;;;;;4994528;28;20549;-84
2021/04/12 11:26:34;;;;;;;5.43;2.38;;;7.10;99.90;;;;;;4992750;28;20219;-81
2021/04/12 11:29:21;;;;;;;5.30;1.60;;;6.70;99.90;;;;;;4994514;28;20222;-83
2021/04/12 11:32:16;;;;;;;2.33;1.48;;;6.30;99.90;;;;;;4994453;28;20198;-81
2021/04/12 11:34:55;;;;;;;5.88;1.40;;;5.40;99.90;;;;;;4993838;28;20200;-83
2021/04/12 11:37:48;;;;;;;3.72;1.45;;;5.00;99.90;;;;;;4978734;28;20193;-82
2021/04/12 11:40:23;;;;;;;1.05;0.60;;;5.40;99.90;;;;;;4990946;28;20604;-82
2021/04/12 11:42:54;;;;;;;1.42;1.05;;;5.80;99.90;;;;;;4993113;28;20205;-83
2021/04/12 11:45:30;;;;;;;4.75;0.80;;;6.10;99.90;;;;;;4992778;28;20234;-77
2021/04/12 11:48:01;;;;;;;2.85;1.20;;;6.10;99.90;;;;;;4994518;28;20170;-81
2021/04/12 11:50:33;;;;;;;1.05;0.70;;;6.20;99.90;;;;;;4992852;28;20179;-80
2021/04/12 11:53:31;;;;;;;1.10;0.75;;;6.00;99.90;;;;;;4994082;28;20186;-83
2021/04/12 11:56:22;;;;;;;0.90;0.70;;;5.90;99.90;;;;;;4993614;28;20206;-85
2021/04/12 11:58:52;;;;;;;0.90;0.70;;;6.00;99.90;;;;;;4993944;28;20194;-85
2021/04/12 12:01:44;;;;;;;1.50;1.15;;;6.10;99.90;;;;;;4993747;28;20211;-78
2021/04/12 12:04:40;;;;;;;1.30;1.08;;;6.40;99.90;;;;;;4993766;28;20176;-80
2021/04/12 12:07:32;;;;;;;1.58;0.90;;;7.70;99.90;;;;;;4993891;28;20200;-90
2021/04/12 12:10:34;;;;;;;1.55;0.90;;;8.00;99.90;;;;;;4993887;28;20171;-84
2021/04/12 12:13:08;;;;;;;1.25;1.00;;;8.50;99.90;;;;;;4994168;28;20242;-85
2021/04/12 12:15:41;;;;;;;1.48;1.38;;;8.00;99.90;;;;;;4993276;28;20201;-80
2021/04/12 12:18:45;;;;;;;1.77;1.25;;;7.50;99.90;;;;;;4993570;28;20509;-85
2021/04/12 12:21:11;;;;;;;1.60;1.50;;;6.50;99.90;;;;;;4993412;28;20274;-81
2021/04/12 12:23:50;;;;;;;4.83;1.37;;;6.40;99.90;;;;;;4992544;28;20720;-82
2021/04/12 12:26:42;;;;;;;2.38;1.38;;;6.00;99.90;;;;;;4993488;28;20210;-85
2021/04/12 12:29:37;;;;;;;1.45;1.20;;;5.80;99.90;;;;;;4994048;28;20565;-84
2021/04/12 12:32:08;;;;;;;1.95;1.40;;;5.50;99.90;;;;;;4992971;28;20568;-85
2021/04/12 12:35:01;;;;;;;1.92;1.70;;;5.50;99.90;;;;;;4992270;28;20168;-86
2021/04/12 12:37:55;;;;;;;2.03;1.38;;;5.60;99.90;;;;;;4993850;28;20593;-84
2021/04/12 12:40:28;;;;;;;1.63;1.52;;;5.20;99.90;;;;;;4992396;28;20254;-85
2021/04/12 12:43:08;;;;;;;3.15;2.20;;;4.90;99.90;;;;;;4993649;28;20177;-85
2021/04/12 12:45:39;;;;;;;3.35;1.52;;;5.00;99.90;;;;;;4992209;28;20296;-86
2021/04/12 12:48:28;;;;;;;3.40;2.35;;;5.00;99.90;;;;;;4992497;28;20178;-84
2021/04/12 12:51:11;;;;;;;2.60;2.40;;;4.90;99.90;;;;;;4992366;28;20179;-82
2021/04/12 12:53:40;;;;;;;3.38;2.50;;;4.40;99.90;;;;;;4992414;28;20203;-83
2021/04/12 12:56:22;;;;;;;5.50;2.13;;;4.00;99.90;;;;;;4993534;28;20203;-85
2021/04/12 12:58:58;;;;;;;3.90;3.50;;;3.90;99.90;;;;;;4993418;28;20189;-84
2021/04/12 13:01:39;;;;;;;2.92;2.72;;;4.00;99.90;;;;;;4991917;28;20190;-83
2021/04/12 13:04:28;;;;;;;2.92;2.60;;;4.50;99.90;;;;;;4975483;28;20189;-85
2021/04/12 13:06:57;;;;;;;4.30;2.92;;;4.60;99.90;;;;;;4973764;28;20196;-82
2021/04/12 13:09:35;;;;;;;3.25;3.05;;;4.70;99.90;;;;;;4956877;28;20196;-84
2021/04/12 13:12:04;;;;;;;4.43;3.75;;;4.80;99.90;;;;;;4974039;28;20254;-83
2021/04/12 13:14:40;;;;;;;4.22;3.67;;;4.80;99.90;;;;;;4977285;28;20187;-83
2021/04/12 13:17:43;;;;;;;3.13;2.72;;;5.00;99.90;;;;;;4992501;28;20207;-85
2021/04/12 13:20:23;;;;;;;3.70;3.40;;;5.00;99.90;;;;;;5000582;28;20246;-83
2021/04/12 13:22:59;;;;;;;3.80;3.50;;;5.50;99.90;;;;;;4997272;28;20169;-83
2021/04/12 13:25:41;;;;;;;3.47;3.17;;;5.50;99.90;;;;;;4996509;28;20208;-83
2021/04/12 13:28:18;;;;;;;3.20;2.92;;;5.60;99.90;;;;;;4996924;28;20172;-85
2021/04/12 13:30:56;;;;;;;5.15;3.25;;;5.50;99.90;;;;;;4996736;28;20257;-85
2021/04/12 13:33:51;;;;;;;4.30;3.30;;;6.00;99.90;;;;;;4997050;28;20221;-85
2021/04/12 13:36:20;;;;;;;2.85;2.60;;;6.60;99.90;;;;;;4995984;28;20243;-84
2021/04/12 13:38:49;;;;;;;3.55;2.92;;;7.10;99.90;;;;;;4996520;28;20653;-86
2021/04/12 13:41:32;;;;;;;6.95;3.15;;;7.40;99.90;;;;;;4995184;28;20270;-85
2021/04/12 13:44:08;;;;;;;3.13;2.92;;;7.50;99.90;;;;;;4995359;28;20175;-86
2021/04/12 13:47:06;;;;;;;2.88;2.65;;;7.90;99.90;;;;;;4996508;28;20233;-85
2021/04/12 13:49:46;;;;;;;2.95;2.42;;;7.90;99.90;;;;;;4987385;28;20305;-86
2021/04/12 13:52:18;;;;;;;3.50;3.00;;;7.80;99.90;;;;;;4996218;28;20546;-85
2021/04/12 13:54:59;;;;;;;2.88;2.60;;;8.20;99.90;;;;;;4996113;28;20689;-86
2021/04/12 13:57:34;;;;;;;2.60;2.35;;;7.80;99.90;;;;;;4996285;28;20285;-85
2021/04/12 14:00:17;;;;;;;2.78;2.50;;;7.30;99.90;;;;;;4996127;28;20637;-86
2021/04/12 14:02:55;;;;;;;3.72;2.75;;;7.70;99.90;;;;;;4996121;28;20229;-85
2021/04/12 14:05:26;;;;;;;2.80;2.40;;;8.10;99.90;;;;;;4996032;28;20163;-86
2021/04/12 14:08:18;;;;;;;2.78;1.83;;;8.30;99.90;;;;;;4996197;28;20621;-86
2021/04/12 14:11:06;;;;;;;2.80;2.38;;;8.00;99.90;;;;;;4996013;28;20159;-85
2021/04/12 14:13:39;;;;;;;4.63;2.75;;;7.80;99.90;;;;;;4995917;28;20190;-85
2021/04/12 14:16:10;;;;;;;3.97;2.38;;;7.80;99.90;;;;;;4995994;28;20276;-84
2021/04/12 14:18:43;;;;;;;2.50;2.30;;;7.40;99.90;;;;;;4996137;28;20188;-86
2021/04/12 14:21:20;;;;;;;2.78;1.90;;;8.00;99.90;;;;;;4994732;28;20706;-85
2021/04/12 14:23:51;;;;;;;2.03;1.73;;;8.00;99.90;;;;;;4996138;28;20175;-85
2021/04/12 14:26:30;;;;;;;2.40;2.20;;;7.90;99.90;;;;;;4996242;28;20214;-85
2021/04/12 14:29:03;;;;;;;3.53;1.63;;;8.40;99.90;;;;;;4998211;28;20170;-88
2021/04/12 14:31:36;;;;;;;1.90;1.70;;;8.70;99.90;;;;;;4998156;28;20171;-86
2021/04/12 14:34:17;;;;;;;1.83;1.73;;;8.10;99.90;;;;;;5000031;28;20156;-85
2021/04/12 14:36:44;;;;;;;2.20;2.00;;;8.80;99.90;;;;;;5000206;28;20198;-85
2021/04/12 14:39:10;;;;;;;1.85;1.75;;;8.50;99.90;;;;;;5001227;28;20230;-84
2021/04/12 14:41:49;;;;;;;2.50;2.00;;;8.60;99.90;;;;;;5000446;28;20278;-84
2021/04/12 14:44:35;;;;;;;2.30;2.10;;;8.80;99.90;;;;;;4997195;28;20174;-84
2021/04/12 14:47:10;;;;;;;1.90;1.60;;;9.30;99.90;;;;;;4994532;28;20195;-83
2021/04/12 14:49:51;;;;;;;3.00;1.88;;;9.30;99.90;;;;;;4995931;28;20205;-84
2021/04/12 14:52:53;;;;;;;2.47;1.98;;;9.10;99.90;;;;;;4995495;28;20563;-84
2021/04/12 14:55:19;;;;;;;2.83;2.15;;;9.10;99.90;;;;;;4994717;28;20185;-85
2021/04/12 14:57:49;;;;;;;3.10;1.93;;;9.30;99.90;;;;;;4995635;28;20180;-85
2021/04/12 15:00:20;;;;;;;2.28;2.08;;;9.30;99.90;;;;;;4995449;28;20454;-84
2021/04/12 15:02:55;;;;;;;2.78;1.70;;;9.40;99.90;;;;;;4995408;28;20578;-84
2021/04/12 15:05:36;;;;;;;1.95;1.85;;;8.70;99.90;;;;;;4994642;28;20229;-86
2021/04/12 15:08:16;;;;;;;3.67;1.90;;;8.60;99.90;;;;;;4993878;28;20233;-85
2021/04/12 15:10:45;;;;;;;2.58;2.13;;;9.00;99.90;;;;;;4993827;28;20183;-83
2021/04/12 15:13:21;;;;;;;2.30;1.98;;;9.40;99.90;;;;;;4994790;28;20229;-79
2021/04/12 15:15:50;;;;;;;1.70;1.60;;;9.40;99.90;;;;;;4994238;28;20213;-78
2021/04/12 15:18:37;;;;;;;2.63;2.10;;;9.40;99.90;;;;;;4994612;28;20263;-79
2021/04/12 15:21:14;;;;;;;2.10;1.90;;;9.10;99.90;;;;;;4994349;28;20272;-79